sensor_id;sensor_type;location;lat;lon;timestamp;P1;durP1;ratioP1;P2;durP2;ratioP2
12878;SDS011;20617;49.476;10.986;2023-08-31T00:00:33;2.85;;;2.42;;
12878;SDS011;20617;49.476;10.986;2023-08-31T00:02:39;3.25;;;2.40;;
12878;SDS011;20617;49.476;10.986;2023-08-31T00:06:49;2.50;;;2.20;;
12878;SDS011;20617;49.476;10.986;2023-08-31T00:08:55;4.65;;;2.60;;
12878;SDS011;20617;49.476;10.986;2023-08-31T00:11:00;3.10;;;2.30;;
12878;SDS011;20617;49.476;10.986;2023-08-31T00:13:05;3.33;;;2.47;;
12878;SDS011;20617;49.476;10.986;2023-08-31T00:15:11;2.80;;;2.35;;
12878;SDS011;20617;49.476;10.986;2023-08-31T00:17:19;4.00;;;2.45;;
12878;SDS011;20617;49.476;10.986;2023-08-31T00:19:24;4.07;;;2.10;;
12878;SDS011;20617;49.476;10.986;2023-08-31T00:21:29;3.53;;;2.33;;
12878;SDS011;20617;49.476;10.986;2023-08-31T00:23:34;2.95;;;2.50;;
12878;SDS011;20617;49.476;10.986;2023-08-31T00:25:40;3.42;;;2.53;;
12878;SDS011;20617;49.476;10.986;2023-08-31T00:27:45;4.47;;;2.30;;
12878;SDS011;20617;49.476;10.986;2023-08-31T00:31:57;2.25;;;2.05;;
12878;SDS011;20617;49.476;10.986;2023-08-31T00:34:05;3.58;;;2.65;;
12878;SDS011;20617;49.476;10.986;2023-08-31T00:36:18;2.50;;;2.08;;
12878;SDS011;20617;49.476;10.986;2023-08-31T00:40:28;3.50;;;2.17;;
12878;SDS011;20617;49.476;10.986;2023-08-31T00:42:37;3.05;;;1.95;;
12878;SDS011;20617;49.476;10.986;2023-08-31T00:44:42;2.47;;;1.80;;
12878;SDS011;20617;49.476;10.986;2023-08-31T00:46:48;2.55;;;1.70;;
12878;SDS011;20617;49.476;10.986;2023-08-31T00:48:53;3.20;;;1.80;;
12878;SDS011;20617;49.476;10.986;2023-08-31T00:51:03;2.78;;;1.67;;
12878;SDS011;20617;49.476;10.986;2023-08-31T00:53:10;3.20;;;1.90;;
12878;SDS011;20617;49.476;10.986;2023-08-31T00:55:18;2.30;;;2.00;;
12878;SDS011;20617;49.476;10.986;2023-08-31T00:57:25;2.28;;;1.90;;
12878;SDS011;20617;49.476;10.986;2023-08-31T00:59:31;3.08;;;2.13;;
12878;SDS011;20617;49.476;10.986;2023-08-31T01:01:41;3.35;;;1.95;;
12878;SDS011;20617;49.476;10.986;2023-08-31T01:03:58;2.13;;;1.77;;
12878;SDS011;20617;49.476;10.986;2023-08-31T01:06:18;3.30;;;2.10;;
12878;SDS011;20617;49.476;10.986;2023-08-31T01:08:36;3.30;;;1.85;;
12878;SDS011;20617;49.476;10.986;2023-08-31T01:10:53;2.65;;;2.30;;
12878;SDS011;20617;49.476;10.986;2023-08-31T01:13:07;3.70;;;2.05;;
12878;SDS011;20617;49.476;10.986;2023-08-31T01:15:17;2.55;;;1.92;;
12878;SDS011;20617;49.476;10.986;2023-08-31T01:17:25;2.90;;;2.15;;
12878;SDS011;20617;49.476;10.986;2023-08-31T01:19:39;4.07;;;2.35;;
12878;SDS011;20617;49.476;10.986;2023-08-31T01:21:51;3.28;;;2.00;;
12878;SDS011;20617;49.476;10.986;2023-08-31T01:23:59;2.55;;;1.83;;
12878;SDS011;20617;49.476;10.986;2023-08-31T01:26:06;2.83;;;2.13;;
12878;SDS011;20617;49.476;10.986;2023-08-31T01:28:12;3.75;;;2.53;;
12878;SDS011;20617;49.476;10.986;2023-08-31T01:30:17;2.22;;;1.88;;
12878;SDS011;20617;49.476;10.986;2023-08-31T01:32:24;3.70;;;1.83;;
12878;SDS011;20617;49.476;10.986;2023-08-31T01:34:30;3.85;;;1.90;;
12878;SDS011;20617;49.476;10.986;2023-08-31T01:36:36;4.45;;;2.10;;
12878;SDS011;20617;49.476;10.986;2023-08-31T01:38:48;1.83;;;1.60;;
12878;SDS011;20617;49.476;10.986;2023-08-31T01:41:03;2.65;;;1.88;;
12878;SDS011;20617;49.476;10.986;2023-08-31T01:43:12;3.33;;;1.88;;
12878;SDS011;20617;49.476;10.986;2023-08-31T01:45:18;3.40;;;1.90;;
12878;SDS011;20617;49.476;10.986;2023-08-31T01:47:26;1.80;;;1.50;;
12878;SDS011;20617;49.476;10.986;2023-08-31T01:49:37;3.53;;;1.83;;
12878;SDS011;20617;49.476;10.986;2023-08-31T01:51:45;2.28;;;1.70;;
12878;SDS011;20617;49.476;10.986;2023-08-31T01:53:51;2.08;;;1.70;;
12878;SDS011;20617;49.476;10.986;2023-08-31T01:55:56;2.85;;;1.80;;
12878;SDS011;20617;49.476;10.986;2023-08-31T01:58:03;2.05;;;1.70;;
12878;SDS011;20617;49.476;10.986;2023-08-31T02:00:09;3.50;;;1.70;;
12878;SDS011;20617;49.476;10.986;2023-08-31T02:02:15;2.35;;;1.90;;
12878;SDS011;20617;49.476;10.986;2023-08-31T02:06:23;2.72;;;2.00;;
12878;SDS011;20617;49.476;10.986;2023-08-31T02:08:28;1.83;;;1.48;;
12878;SDS011;20617;49.476;10.986;2023-08-31T02:10:33;2.97;;;1.77;;
12878;SDS011;20617;49.476;10.986;2023-08-31T02:12:38;2.38;;;2.10;;
12878;SDS011;20617;49.476;10.986;2023-08-31T02:14:45;1.92;;;1.73;;
12878;SDS011;20617;49.476;10.986;2023-08-31T02:16:51;3.20;;;2.00;;
12878;SDS011;20617;49.476;10.986;2023-08-31T02:18:56;2.47;;;1.60;;
12878;SDS011;20617;49.476;10.986;2023-08-31T02:21:03;2.05;;;1.85;;
12878;SDS011;20617;49.476;10.986;2023-08-31T02:23:09;1.90;;;1.25;;
12878;SDS011;20617;49.476;10.986;2023-08-31T02:25:15;5.40;;;1.92;;
12878;SDS011;20617;49.476;10.986;2023-08-31T02:27:20;2.08;;;1.88;;
12878;SDS011;20617;49.476;10.986;2023-08-31T02:29:25;3.85;;;1.88;;
12878;SDS011;20617;49.476;10.986;2023-08-31T02:31:33;3.22;;;2.10;;
12878;SDS011;20617;49.476;10.986;2023-08-31T02:33:39;2.50;;;1.90;;
12878;SDS011;20617;49.476;10.986;2023-08-31T02:35:46;2.47;;;1.80;;
12878;SDS011;20617;49.476;10.986;2023-08-31T02:39:56;2.15;;;1.90;;
12878;SDS011;20617;49.476;10.986;2023-08-31T02:42:02;3.80;;;2.13;;
12878;SDS011;20617;49.476;10.986;2023-08-31T02:44:07;3.20;;;2.10;;
12878;SDS011;20617;49.476;10.986;2023-08-31T02:46:13;2.53;;;2.00;;
12878;SDS011;20617;49.476;10.986;2023-08-31T02:48:23;2.60;;;1.60;;
12878;SDS011;20617;49.476;10.986;2023-08-31T02:50:29;1.80;;;1.70;;
12878;SDS011;20617;49.476;10.986;2023-08-31T02:52:34;2.50;;;1.92;;
12878;SDS011;20617;49.476;10.986;2023-08-31T02:54:37;3.58;;;2.22;;
12878;SDS011;20617;49.476;10.986;2023-08-31T02:56:42;2.90;;;1.90;;
12878;SDS011;20617;49.476;10.986;2023-08-31T03:00:52;4.32;;;2.50;;
12878;SDS011;20617;49.476;10.986;2023-08-31T03:05:06;4.17;;;2.30;;
12878;SDS011;20617;49.476;10.986;2023-08-31T03:07:11;4.57;;;2.00;;
12878;SDS011;20617;49.476;10.986;2023-08-31T03:09:17;3.45;;;2.20;;
12878;SDS011;20617;49.476;10.986;2023-08-31T03:11:23;3.50;;;2.00;;
12878;SDS011;20617;49.476;10.986;2023-08-31T03:13:28;3.10;;;2.45;;
12878;SDS011;20617;49.476;10.986;2023-08-31T03:15:33;3.10;;;2.20;;
12878;SDS011;20617;49.476;10.986;2023-08-31T03:17:38;3.33;;;2.50;;
12878;SDS011;20617;49.476;10.986;2023-08-31T03:19:44;5.10;;;2.53;;
12878;SDS011;20617;49.476;10.986;2023-08-31T03:21:52;4.18;;;2.47;;
12878;SDS011;20617;49.476;10.986;2023-08-31T03:23:57;3.38;;;2.88;;
12878;SDS011;20617;49.476;10.986;2023-08-31T03:28:11;3.63;;;2.40;;
12878;SDS011;20617;49.476;10.986;2023-08-31T03:30:16;3.10;;;2.80;;
12878;SDS011;20617;49.476;10.986;2023-08-31T03:32:22;3.47;;;2.53;;
12878;SDS011;20617;49.476;10.986;2023-08-31T03:34:28;5.05;;;2.58;;
12878;SDS011;20617;49.476;10.986;2023-08-31T03:36:36;6.57;;;4.72;;
12878;SDS011;20617;49.476;10.986;2023-08-31T03:38:44;6.35;;;4.78;;
12878;SDS011;20617;49.476;10.986;2023-08-31T03:40:53;4.47;;;2.97;;
12878;SDS011;20617;49.476;10.986;2023-08-31T03:42:59;3.92;;;3.08;;
12878;SDS011;20617;49.476;10.986;2023-08-31T03:45:05;3.83;;;2.50;;
12878;SDS011;20617;49.476;10.986;2023-08-31T03:47:11;2.28;;;2.08;;
12878;SDS011;20617;49.476;10.986;2023-08-31T03:49:16;3.53;;;2.70;;
12878;SDS011;20617;49.476;10.986;2023-08-31T03:51:21;4.22;;;2.75;;
12878;SDS011;20617;49.476;10.986;2023-08-31T03:53:26;4.03;;;2.83;;
12878;SDS011;20617;49.476;10.986;2023-08-31T03:55:35;4.28;;;2.90;;
12878;SDS011;20617;49.476;10.986;2023-08-31T03:57:41;4.88;;;3.47;;
12878;SDS011;20617;49.476;10.986;2023-08-31T03:59:51;3.90;;;3.10;;
12878;SDS011;20617;49.476;10.986;2023-08-31T04:01:56;4.75;;;3.60;;
12878;SDS011;20617;49.476;10.986;2023-08-31T04:04:03;5.80;;;3.50;;
12878;SDS011;20617;49.476;10.986;2023-08-31T04:06:11;3.90;;;2.83;;
12878;SDS011;20617;49.476;10.986;2023-08-31T04:08:16;6.30;;;3.03;;
12878;SDS011;20617;49.476;10.986;2023-08-31T04:10:21;5.65;;;3.05;;
12878;SDS011;20617;49.476;10.986;2023-08-31T04:12:30;3.40;;;3.08;;
12878;SDS011;20617;49.476;10.986;2023-08-31T04:14:37;5.05;;;3.20;;
12878;SDS011;20617;49.476;10.986;2023-08-31T04:16:42;5.55;;;3.58;;
12878;SDS011;20617;49.476;10.986;2023-08-31T04:18:51;5.43;;;3.15;;
12878;SDS011;20617;49.476;10.986;2023-08-31T04:20:56;3.85;;;2.97;;
12878;SDS011;20617;49.476;10.986;2023-08-31T04:23:04;4.05;;;3.35;;
12878;SDS011;20617;49.476;10.986;2023-08-31T04:25:09;3.95;;;3.47;;
12878;SDS011;20617;49.476;10.986;2023-08-31T04:27:17;5.53;;;4.05;;
12878;SDS011;20617;49.476;10.986;2023-08-31T04:29:27;6.57;;;3.40;;
12878;SDS011;20617;49.476;10.986;2023-08-31T04:31:32;6.10;;;4.10;;
12878;SDS011;20617;49.476;10.986;2023-08-31T04:33:37;5.72;;;3.53;;
12878;SDS011;20617;49.476;10.986;2023-08-31T04:35:43;4.03;;;3.50;;
12878;SDS011;20617;49.476;10.986;2023-08-31T04:37:48;4.70;;;3.85;;
12878;SDS011;20617;49.476;10.986;2023-08-31T04:39:53;5.03;;;3.90;;
12878;SDS011;20617;49.476;10.986;2023-08-31T04:41:59;4.90;;;3.70;;
12878;SDS011;20617;49.476;10.986;2023-08-31T04:44:04;6.47;;;4.00;;
12878;SDS011;20617;49.476;10.986;2023-08-31T04:46:12;5.28;;;4.40;;
12878;SDS011;20617;49.476;10.986;2023-08-31T04:48:18;6.43;;;3.83;;
12878;SDS011;20617;49.476;10.986;2023-08-31T04:50:24;7.10;;;4.80;;
12878;SDS011;20617;49.476;10.986;2023-08-31T04:52:29;6.65;;;4.35;;
12878;SDS011;20617;49.476;10.986;2023-08-31T04:54:34;6.82;;;4.55;;
12878;SDS011;20617;49.476;10.986;2023-08-31T04:56:39;6.40;;;4.35;;
12878;SDS011;20617;49.476;10.986;2023-08-31T05:00:49;7.88;;;5.38;;
12878;SDS011;20617;49.476;10.986;2023-08-31T05:05:03;6.32;;;5.70;;
12878;SDS011;20617;49.476;10.986;2023-08-31T05:07:10;7.38;;;5.18;;
12878;SDS011;20617;49.476;10.986;2023-08-31T05:09:18;8.27;;;4.93;;
12878;SDS011;20617;49.476;10.986;2023-08-31T05:11:24;7.65;;;5.03;;
12878;SDS011;20617;49.476;10.986;2023-08-31T05:13:27;6.85;;;5.35;;
12878;SDS011;20617;49.476;10.986;2023-08-31T05:15:34;6.85;;;5.45;;
12878;SDS011;20617;49.476;10.986;2023-08-31T05:17:40;5.78;;;4.78;;
12878;SDS011;20617;49.476;10.986;2023-08-31T05:21:53;7.80;;;5.60;;
12878;SDS011;20617;49.476;10.986;2023-08-31T05:23:58;8.02;;;6.45;;
12878;SDS011;20617;49.476;10.986;2023-08-31T05:26:03;8.40;;;5.45;;
12878;SDS011;20617;49.476;10.986;2023-08-31T05:28:08;6.15;;;5.32;;
12878;SDS011;20617;49.476;10.986;2023-08-31T05:32:19;6.77;;;4.87;;
12878;SDS011;20617;49.476;10.986;2023-08-31T05:34:24;5.47;;;4.28;;
12878;SDS011;20617;49.476;10.986;2023-08-31T05:36:32;7.28;;;5.15;;
12878;SDS011;20617;49.476;10.986;2023-08-31T05:38:38;8.27;;;5.28;;
12878;SDS011;20617;49.476;10.986;2023-08-31T05:40:43;9.05;;;5.85;;
12878;SDS011;20617;49.476;10.986;2023-08-31T05:44:51;5.13;;;4.15;;
12878;SDS011;20617;49.476;10.986;2023-08-31T05:46:56;6.38;;;5.53;;
12878;SDS011;20617;49.476;10.986;2023-08-31T05:49:02;6.05;;;5.03;;
12878;SDS011;20617;49.476;10.986;2023-08-31T05:51:10;5.53;;;4.32;;
12878;SDS011;20617;49.476;10.986;2023-08-31T05:53:19;8.65;;;5.40;;
12878;SDS011;20617;49.476;10.986;2023-08-31T05:57:27;5.95;;;4.90;;
12878;SDS011;20617;49.476;10.986;2023-08-31T05:59:32;6.63;;;5.95;;
12878;SDS011;20617;49.476;10.986;2023-08-31T06:01:38;6.13;;;5.40;;
12878;SDS011;20617;49.476;10.986;2023-08-31T06:03:43;8.10;;;5.63;;
12878;SDS011;20617;49.476;10.986;2023-08-31T06:05:50;7.60;;;5.15;;
12878;SDS011;20617;49.476;10.986;2023-08-31T06:07:56;8.35;;;5.25;;
12878;SDS011;20617;49.476;10.986;2023-08-31T06:10:05;7.82;;;5.32;;
12878;SDS011;20617;49.476;10.986;2023-08-31T06:12:08;7.00;;;6.03;;
12878;SDS011;20617;49.476;10.986;2023-08-31T06:14:16;7.35;;;4.90;;
12878;SDS011;20617;49.476;10.986;2023-08-31T06:16:21;7.75;;;5.15;;
12878;SDS011;20617;49.476;10.986;2023-08-31T06:18:26;7.72;;;4.97;;
12878;SDS011;20617;49.476;10.986;2023-08-31T06:20:32;4.95;;;4.35;;
12878;SDS011;20617;49.476;10.986;2023-08-31T06:22:38;8.90;;;6.18;;
12878;SDS011;20617;49.476;10.986;2023-08-31T06:24:43;6.55;;;5.15;;
12878;SDS011;20617;49.476;10.986;2023-08-31T06:26:52;4.57;;;4.15;;
12878;SDS011;20617;49.476;10.986;2023-08-31T06:28:58;6.25;;;4.82;;
12878;SDS011;20617;49.476;10.986;2023-08-31T06:31:03;7.97;;;5.65;;
12878;SDS011;20617;49.476;10.986;2023-08-31T06:33:11;9.80;;;6.22;;
12878;SDS011;20617;49.476;10.986;2023-08-31T06:35:21;7.82;;;5.35;;
12878;SDS011;20617;49.476;10.986;2023-08-31T06:37:27;7.25;;;5.53;;
12878;SDS011;20617;49.476;10.986;2023-08-31T06:39:33;6.22;;;5.25;;
12878;SDS011;20617;49.476;10.986;2023-08-31T06:41:37;6.28;;;5.22;;
12878;SDS011;20617;49.476;10.986;2023-08-31T06:43:46;8.18;;;5.38;;
12878;SDS011;20617;49.476;10.986;2023-08-31T06:45:52;8.20;;;4.78;;
12878;SDS011;20617;49.476;10.986;2023-08-31T06:48:21;4.97;;;4.35;;
12878;SDS011;20617;49.476;10.986;2023-08-31T06:50:32;7.07;;;4.75;;
12878;SDS011;20617;49.476;10.986;2023-08-31T06:52:41;8.93;;;4.63;;
12878;SDS011;20617;49.476;10.986;2023-08-31T06:54:51;6.82;;;4.82;;
12878;SDS011;20617;49.476;10.986;2023-08-31T06:57:00;5.18;;;4.47;;
12878;SDS011;20617;49.476;10.986;2023-08-31T06:59:08;6.25;;;4.03;;
12878;SDS011;20617;49.476;10.986;2023-08-31T07:01:12;7.30;;;4.68;;
12878;SDS011;20617;49.476;10.986;2023-08-31T07:03:17;6.05;;;4.35;;
12878;SDS011;20617;49.476;10.986;2023-08-31T07:05:32;5.07;;;4.57;;
12878;SDS011;20617;49.476;10.986;2023-08-31T07:07:41;8.93;;;5.00;;
12878;SDS011;20617;49.476;10.986;2023-08-31T07:09:52;6.95;;;4.00;;
12878;SDS011;20617;49.476;10.986;2023-08-31T07:12:00;7.63;;;4.60;;
12878;SDS011;20617;49.476;10.986;2023-08-31T07:14:16;5.10;;;4.10;;
12878;SDS011;20617;49.476;10.986;2023-08-31T07:16:23;8.40;;;4.32;;
12878;SDS011;20617;49.476;10.986;2023-08-31T07:18:29;7.65;;;3.83;;
12878;SDS011;20617;49.476;10.986;2023-08-31T07:20:34;5.82;;;3.72;;
12878;SDS011;20617;49.476;10.986;2023-08-31T07:22:40;7.03;;;3.53;;
12878;SDS011;20617;49.476;10.986;2023-08-31T07:26:52;8.05;;;3.53;;
12878;SDS011;20617;49.476;10.986;2023-08-31T07:28:58;7.07;;;3.55;;
12878;SDS011;20617;49.476;10.986;2023-08-31T07:31:11;4.03;;;2.78;;
12878;SDS011;20617;49.476;10.986;2023-08-31T07:33:20;4.47;;;2.80;;
12878;SDS011;20617;49.476;10.986;2023-08-31T07:35:32;8.25;;;3.70;;
12878;SDS011;20617;49.476;10.986;2023-08-31T07:37:37;6.38;;;3.53;;
12878;SDS011;20617;49.476;10.986;2023-08-31T07:39:43;5.50;;;3.35;;
12878;SDS011;20617;49.476;10.986;2023-08-31T07:41:52;5.30;;;3.45;;
12878;SDS011;20617;49.476;10.986;2023-08-31T07:43:59;5.82;;;3.00;;
12878;SDS011;20617;49.476;10.986;2023-08-31T07:46:06;4.38;;;2.65;;
12878;SDS011;20617;49.476;10.986;2023-08-31T07:48:13;6.30;;;3.38;;
12878;SDS011;20617;49.476;10.986;2023-08-31T07:50:18;5.95;;;3.20;;
12878;SDS011;20617;49.476;10.986;2023-08-31T07:52:25;6.63;;;3.20;;
12878;SDS011;20617;49.476;10.986;2023-08-31T07:54:30;6.28;;;2.70;;
12878;SDS011;20617;49.476;10.986;2023-08-31T07:56:42;5.15;;;2.50;;
12878;SDS011;20617;49.476;10.986;2023-08-31T07:58:48;4.43;;;2.92;;
12878;SDS011;20617;49.476;10.986;2023-08-31T08:03:00;5.28;;;2.22;;
12878;SDS011;20617;49.476;10.986;2023-08-31T08:05:09;6.18;;;2.47;;
12878;SDS011;20617;49.476;10.986;2023-08-31T08:07:16;4.13;;;2.42;;
12878;SDS011;20617;49.476;10.986;2023-08-31T08:11:32;6.72;;;2.33;;
12878;SDS011;20617;49.476;10.986;2023-08-31T08:13:39;5.47;;;2.38;;
12878;SDS011;20617;49.476;10.986;2023-08-31T08:15:45;4.55;;;2.53;;
12878;SDS011;20617;49.476;10.986;2023-08-31T08:17:51;7.18;;;2.20;;
12878;SDS011;20617;49.476;10.986;2023-08-31T08:19:56;6.00;;;2.40;;
12878;SDS011;20617;49.476;10.986;2023-08-31T08:22:07;4.15;;;2.10;;
12878;SDS011;20617;49.476;10.986;2023-08-31T08:24:14;4.45;;;2.10;;
12878;SDS011;20617;49.476;10.986;2023-08-31T08:28:25;6.80;;;2.30;;
12878;SDS011;20617;49.476;10.986;2023-08-31T08:30:31;5.18;;;2.40;;
12878;SDS011;20617;49.476;10.986;2023-08-31T08:34:41;4.95;;;1.88;;
12878;SDS011;20617;49.476;10.986;2023-08-31T08:36:46;6.47;;;2.78;;
12878;SDS011;20617;49.476;10.986;2023-08-31T08:41:04;4.93;;;1.90;;
12878;SDS011;20617;49.476;10.986;2023-08-31T08:43:10;5.70;;;2.08;;
12878;SDS011;20617;49.476;10.986;2023-08-31T08:45:17;6.35;;;2.10;;
12878;SDS011;20617;49.476;10.986;2023-08-31T08:47:22;6.13;;;2.60;;
12878;SDS011;20617;49.476;10.986;2023-08-31T08:49:27;5.38;;;2.45;;
12878;SDS011;20617;49.476;10.986;2023-08-31T08:51:35;6.35;;;2.53;;
12878;SDS011;20617;49.476;10.986;2023-08-31T08:53:41;3.13;;;1.85;;
12878;SDS011;20617;49.476;10.986;2023-08-31T08:55:50;5.97;;;2.33;;
12878;SDS011;20617;49.476;10.986;2023-08-31T08:57:57;5.20;;;2.20;;
12878;SDS011;20617;49.476;10.986;2023-08-31T09:00:04;4.22;;;1.88;;
12878;SDS011;20617;49.476;10.986;2023-08-31T09:02:11;4.82;;;2.17;;
12878;SDS011;20617;49.476;10.986;2023-08-31T09:04:17;7.45;;;2.75;;
12878;SDS011;20617;49.476;10.986;2023-08-31T09:06:24;5.43;;;2.63;;
12878;SDS011;20617;49.476;10.986;2023-08-31T09:08:32;7.38;;;2.30;;
12878;SDS011;20617;49.476;10.986;2023-08-31T09:10:39;4.13;;;2.42;;
12878;SDS011;20617;49.476;10.986;2023-08-31T09:12:45;4.47;;;2.35;;
12878;SDS011;20617;49.476;10.986;2023-08-31T09:14:58;5.53;;;2.17;;
12878;SDS011;20617;49.476;10.986;2023-08-31T09:17:03;4.32;;;1.90;;
12878;SDS011;20617;49.476;10.986;2023-08-31T09:19:17;6.15;;;2.10;;
12878;SDS011;20617;49.476;10.986;2023-08-31T09:21:23;30.55;;;2.55;;
12878;SDS011;20617;49.476;10.986;2023-08-31T09:23:39;3.15;;;1.92;;
12878;SDS011;20617;49.476;10.986;2023-08-31T09:25:47;4.43;;;2.00;;
12878;SDS011;20617;49.476;10.986;2023-08-31T09:27:58;2.65;;;1.58;;
12878;SDS011;20617;49.476;10.986;2023-08-31T09:30:05;6.28;;;2.00;;
12878;SDS011;20617;49.476;10.986;2023-08-31T09:32:15;3.35;;;1.75;;
12878;SDS011;20617;49.476;10.986;2023-08-31T09:34:24;3.65;;;1.83;;
12878;SDS011;20617;49.476;10.986;2023-08-31T09:36:39;2.75;;;1.63;;
12878;SDS011;20617;49.476;10.986;2023-08-31T09:38:45;4.80;;;2.30;;
12878;SDS011;20617;49.476;10.986;2023-08-31T09:40:50;2.85;;;1.60;;
12878;SDS011;20617;49.476;10.986;2023-08-31T09:42:59;3.47;;;1.80;;
12878;SDS011;20617;49.476;10.986;2023-08-31T09:45:05;3.50;;;1.55;;
12878;SDS011;20617;49.476;10.986;2023-08-31T09:47:11;2.35;;;1.77;;
12878;SDS011;20617;49.476;10.986;2023-08-31T09:49:18;2.40;;;1.83;;
12878;SDS011;20617;49.476;10.986;2023-08-31T09:51:27;4.50;;;2.53;;
12878;SDS011;20617;49.476;10.986;2023-08-31T09:53:31;2.95;;;1.70;;
12878;SDS011;20617;49.476;10.986;2023-08-31T09:55:42;2.88;;;1.83;;
12878;SDS011;20617;49.476;10.986;2023-08-31T09:57:48;4.80;;;1.90;;
12878;SDS011;20617;49.476;10.986;2023-08-31T10:00:17;3.35;;;1.65;;
12878;SDS011;20617;49.476;10.986;2023-08-31T10:02:23;3.92;;;1.80;;
12878;SDS011;20617;49.476;10.986;2023-08-31T10:04:29;2.38;;;2.00;;
12878;SDS011;20617;49.476;10.986;2023-08-31T10:06:37;5.43;;;1.60;;
12878;SDS011;20617;49.476;10.986;2023-08-31T10:08:43;6.10;;;2.30;;
12878;SDS011;20617;49.476;10.986;2023-08-31T10:10:48;2.90;;;1.77;;
12878;SDS011;20617;49.476;10.986;2023-08-31T10:12:54;3.45;;;2.15;;
12878;SDS011;20617;49.476;10.986;2023-08-31T10:14:59;4.80;;;2.13;;
12878;SDS011;20617;49.476;10.986;2023-08-31T10:17:10;4.15;;;2.40;;
12878;SDS011;20617;49.476;10.986;2023-08-31T10:19:15;6.53;;;2.40;;
12878;SDS011;20617;49.476;10.986;2023-08-31T10:21:21;6.88;;;2.67;;
12878;SDS011;20617;49.476;10.986;2023-08-31T10:23:27;6.97;;;2.25;;
12878;SDS011;20617;49.476;10.986;2023-08-31T10:28:15;4.40;;;2.40;;
12878;SDS011;20617;49.476;10.986;2023-08-31T10:30:26;4.18;;;2.65;;
12878;SDS011;20617;49.476;10.986;2023-08-31T10:32:35;2.80;;;2.00;;
12878;SDS011;20617;49.476;10.986;2023-08-31T10:34:40;5.45;;;2.53;;
12878;SDS011;20617;49.476;10.986;2023-08-31T10:36:50;6.38;;;2.33;;
12878;SDS011;20617;49.476;10.986;2023-08-31T10:39:13;5.45;;;2.33;;
12878;SDS011;20617;49.476;10.986;2023-08-31T10:41:21;7.05;;;2.47;;
12878;SDS011;20617;49.476;10.986;2023-08-31T10:43:27;6.43;;;3.40;;
12878;SDS011;20617;49.476;10.986;2023-08-31T10:45:43;6.53;;;3.10;;
12878;SDS011;20617;49.476;10.986;2023-08-31T10:47:51;3.35;;;1.92;;
12878;SDS011;20617;49.476;10.986;2023-08-31T10:50:21;4.95;;;2.45;;
12878;SDS011;20617;49.476;10.986;2023-08-31T10:52:25;4.35;;;2.45;;
12878;SDS011;20617;49.476;10.986;2023-08-31T10:54:37;4.93;;;2.58;;
12878;SDS011;20617;49.476;10.986;2023-08-31T10:59:07;4.60;;;2.28;;
12878;SDS011;20617;49.476;10.986;2023-08-31T11:01:13;6.13;;;2.25;;
12878;SDS011;20617;49.476;10.986;2023-08-31T11:03:21;6.07;;;2.22;;
12878;SDS011;20617;49.476;10.986;2023-08-31T11:05:30;2.95;;;2.38;;
12878;SDS011;20617;49.476;10.986;2023-08-31T11:07:36;3.65;;;2.35;;
12878;SDS011;20617;49.476;10.986;2023-08-31T11:09:45;7.63;;;2.92;;
12878;SDS011;20617;49.476;10.986;2023-08-31T11:11:49;6.40;;;2.92;;
12878;SDS011;20617;49.476;10.986;2023-08-31T11:13:56;5.38;;;2.42;;
12878;SDS011;20617;49.476;10.986;2023-08-31T11:16:01;4.88;;;2.25;;
12878;SDS011;20617;49.476;10.986;2023-08-31T11:18:09;5.00;;;3.03;;
12878;SDS011;20617;49.476;10.986;2023-08-31T11:20:18;3.50;;;2.30;;
12878;SDS011;20617;49.476;10.986;2023-08-31T11:22:31;4.35;;;2.03;;
12878;SDS011;20617;49.476;10.986;2023-08-31T11:24:34;5.18;;;2.38;;
12878;SDS011;20617;49.476;10.986;2023-08-31T11:26:40;4.13;;;2.30;;
12878;SDS011;20617;49.476;10.986;2023-08-31T11:28:48;3.83;;;2.10;;
12878;SDS011;20617;49.476;10.986;2023-08-31T11:30:55;5.10;;;2.17;;
12878;SDS011;20617;49.476;10.986;2023-08-31T11:33:01;4.32;;;2.22;;
12878;SDS011;20617;49.476;10.986;2023-08-31T11:35:07;3.83;;;2.00;;
12878;SDS011;20617;49.476;10.986;2023-08-31T11:37:16;5.22;;;2.40;;
12878;SDS011;20617;49.476;10.986;2023-08-31T11:39:22;5.40;;;2.00;;
12878;SDS011;20617;49.476;10.986;2023-08-31T11:41:29;4.63;;;2.40;;
12878;SDS011;20617;49.476;10.986;2023-08-31T11:43:39;2.92;;;1.83;;
12878;SDS011;20617;49.476;10.986;2023-08-31T11:45:46;3.38;;;2.00;;
12878;SDS011;20617;49.476;10.986;2023-08-31T11:47:51;6.07;;;2.20;;
12878;SDS011;20617;49.476;10.986;2023-08-31T11:50:02;3.85;;;2.13;;
12878;SDS011;20617;49.476;10.986;2023-08-31T11:52:09;3.30;;;1.83;;
12878;SDS011;20617;49.476;10.986;2023-08-31T11:54:19;4.30;;;2.22;;
12878;SDS011;20617;49.476;10.986;2023-08-31T11:56:25;9.98;;;2.45;;
12878;SDS011;20617;49.476;10.986;2023-08-31T11:58:30;3.47;;;1.88;;
12878;SDS011;20617;49.476;10.986;2023-08-31T12:00:33;5.00;;;2.72;;
12878;SDS011;20617;49.476;10.986;2023-08-31T12:02:39;3.25;;;1.95;;
12878;SDS011;20617;49.476;10.986;2023-08-31T12:04:48;2.92;;;1.88;;
12878;SDS011;20617;49.476;10.986;2023-08-31T12:06:51;4.47;;;2.15;;
12878;SDS011;20617;49.476;10.986;2023-08-31T12:08:57;3.95;;;1.85;;
12878;SDS011;20617;49.476;10.986;2023-08-31T12:11:09;2.67;;;1.45;;
12878;SDS011;20617;49.476;10.986;2023-08-31T12:13:14;5.03;;;2.13;;
12878;SDS011;20617;49.476;10.986;2023-08-31T12:15:19;3.33;;;1.77;;
12878;SDS011;20617;49.476;10.986;2023-08-31T12:17:26;7.25;;;2.17;;
12878;SDS011;20617;49.476;10.986;2023-08-31T12:19:32;3.97;;;2.10;;
12878;SDS011;20617;49.476;10.986;2023-08-31T12:21:41;4.32;;;2.10;;
12878;SDS011;20617;49.476;10.986;2023-08-31T12:23:47;7.13;;;2.10;;
12878;SDS011;20617;49.476;10.986;2023-08-31T12:25:51;6.50;;;1.83;;
12878;SDS011;20617;49.476;10.986;2023-08-31T12:28:00;1.98;;;1.55;;
12878;SDS011;20617;49.476;10.986;2023-08-31T12:30:06;2.97;;;1.85;;
12878;SDS011;20617;49.476;10.986;2023-08-31T12:32:16;5.45;;;1.88;;
12878;SDS011;20617;49.476;10.986;2023-08-31T12:36:28;5.03;;;1.80;;
12878;SDS011;20617;49.476;10.986;2023-08-31T12:38:34;4.60;;;1.88;;
12878;SDS011;20617;49.476;10.986;2023-08-31T12:40:40;3.80;;;1.30;;
12878;SDS011;20617;49.476;10.986;2023-08-31T12:42:45;5.57;;;1.63;;
12878;SDS011;20617;49.476;10.986;2023-08-31T12:44:54;4.57;;;1.90;;
12878;SDS011;20617;49.476;10.986;2023-08-31T12:47:00;5.05;;;1.90;;
12878;SDS011;20617;49.476;10.986;2023-08-31T12:49:10;4.25;;;1.92;;
12878;SDS011;20617;49.476;10.986;2023-08-31T12:51:18;4.55;;;1.60;;
12878;SDS011;20617;49.476;10.986;2023-08-31T12:53:24;4.30;;;1.98;;
12878;SDS011;20617;49.476;10.986;2023-08-31T12:55:26;6.35;;;1.73;;
12878;SDS011;20617;49.476;10.986;2023-08-31T12:57:32;3.00;;;1.55;;
12878;SDS011;20617;49.476;10.986;2023-08-31T12:59:38;4.07;;;1.85;;
12878;SDS011;20617;49.476;10.986;2023-08-31T13:01:47;2.47;;;1.17;;
12878;SDS011;20617;49.476;10.986;2023-08-31T13:03:53;4.72;;;1.83;;
12878;SDS011;20617;49.476;10.986;2023-08-31T13:06:01;4.05;;;1.60;;
12878;SDS011;20617;49.476;10.986;2023-08-31T13:08:05;4.30;;;1.90;;
12878;SDS011;20617;49.476;10.986;2023-08-31T13:10:11;2.45;;;1.58;;
12878;SDS011;20617;49.476;10.986;2023-08-31T13:12:17;3.75;;;1.60;;
12878;SDS011;20617;49.476;10.986;2023-08-31T13:14:23;4.30;;;1.65;;
12878;SDS011;20617;49.476;10.986;2023-08-31T13:18:43;4.55;;;1.50;;
12878;SDS011;20617;49.476;10.986;2023-08-31T13:20:48;3.60;;;1.42;;
12878;SDS011;20617;49.476;10.986;2023-08-31T13:22:57;3.42;;;1.55;;
12878;SDS011;20617;49.476;10.986;2023-08-31T13:25:05;3.50;;;1.50;;